Share

Appam, ND

KNDALAMO3 Elev 2100 ft | 48.49 °N, 103.51 °W | Change Station

Current weather conditions updated 11 minutes ago

Overcast
Overcast
36.6 °F
Feels Like 27 °F
N
15.0
Wind Variable Wind from SE
Gusts 20.0 mph
Sunrise 6:59 AM
Sunset 8:48 PM
Moon Waning Gibbous

Tomorrow is forecast to be Much Warmer than today. Afternoon showers.

Pressure 30.06 in
Visibility 10.0 miles
Clouds Overcast 3600 ft
Windchill 27 °F
Dew Point 28 °F
Humidity 71%
Rainfall 0.00 in
Snow Depth Not available.
UV 0.0 out of 16
Pollen 6.80 out of 12
Air Quality Not available.
Flu Activity Sporadic
METAR KD50 180255Z AUTO 10010KT 10SM OVC036 02/M04 A3006 RMK AO2

More Conditions Fewer Conditions

Pressure 30.06 in
Visibility 10.0 miles
Clouds Overcast 3600 ft
Windchill 27 °F
Dew Point 28 °F
Humidity 71%
Rainfall 0.00 in
Snow Depth Not available.
UV 0.0 out of 16
Pollen 6.80 out of 12
Air Quality Not available.
Flu Activity Sporadic
METAR KD50 180255Z AUTO 10010KT 10SM OVC036 02/M04 A3006 RMK AO2

More Conditions Fewer Conditions

10-Day Forecast

Almanac

Astronomy

Apr. 17, 2014 Rise Set
Actual Time 6:59 AM CDT 8:48 PM CDT
Civil Twilight 6:25 AM CDT 9:21 PM CDT
Nautical Twilight 5:45 AM CDT 10:02 PM CDT
Astronomical Twilight 5:00 AM CDT 10:48 PM CDT
Moon 11:46 PM CDT (4/17) 8:24 AM CDT (4/17)
Length of Visible Light 14h 55m
Length of Day
13h 48m
Tomorrow will be 3m 25s longer.
Waning Gibbous, 91% of the Moon is Illuminated
Today
Waning Gibbous
Apr 22
Last Quarter
Apr 29
New
May 6
First Quarter
May 14
Full

Today's Extremes

State Highs State Lows

Community

  • SUNRISE THROUGH THE TREES.
    SUNRISE THROUGH THE TREES.
  • Dog Wood Blossoms
    Dog Wood Blossoms
  • Morning Light
    Morning Light
  • New Day
    New Day
  • Lake Michigan Sunrise
    Lake Michigan Sunrise

WunderPhotos

Upload Photos

1,702,234 photos uploaded!

WunderBlogs® & News

Nearby

Snow Depth

Station Depth Elevation
No new snow has been reported.

Coastal Water Temperatures

Place Temperature
No Stations Reporting

Earthquake Activity

City Distance Mag. Time & Date
No recent earthquake activity has been reported nearby.
Minimum magnitude displayed is 2.5.

Nearby Weather Stations

Station Location Temp. Windchill Dew Point Humidity Wind Precip. Elev Updated Type
Alamo, ND 36.6 °F 27 °F 28 °F 71% SE  at  15.0 mph 0.00 in / hr 2100 ft 9:54 PM CDT Normal
South of Alamo, ND, ALAMO, ND 36.1 °F 29 °F 24 °F 61% ESE  at  9.8 mph 0.00 in / hr 2100 ft 10:06 PM CDT Rapid Fire
Rural Wildrose, Wildrose, ND 38.8 °F 32 °F 29 °F 67% SE  at  9.4 mph - / hr 2238 ft 10:06 PM CDT Normal
Valhalla, Williston, ND 36.9 °F 28 °F 15 °F 40% SSE  at  15.0 mph 0.00 in / hr 1972 ft 10:06 PM CDT Rapid Fire
NDDOT Crosby ND 5 MP 28.7, Crosby, ND 40 °F 33 °F 21 °F 46% SSW  at  12 mph 0.00 in / hr 2185 ft 7:07 PM CDT MADIS

Show More Stations Show Fewer Stations

What do you think?

We're not finished. Please let us know what you like, what you don't like, and what you are still missing.